createdAt,value
2023-01-02T00:01:32.365Z,8.3
2023-01-02T00:03:34.487Z,8.7
2023-01-02T00:05:36.402Z,8.8
2023-01-02T00:09:43.456Z,9.5
2023-01-02T00:13:47.436Z,8.5
2023-01-02T00:15:49.550Z,8.1
2023-01-02T00:17:51.460Z,7.6
2023-01-02T00:21:58.506Z,9.1
2023-01-02T00:24:00.497Z,6.6
2023-01-02T00:26:02.532Z,7.4
2023-01-02T00:28:04.515Z,7.5
2023-01-02T00:30:06.526Z,8
2023-01-02T00:32:08.511Z,8.6
2023-01-02T00:34:10.523Z,8.6
2023-01-02T00:36:15.577Z,8.5
2023-01-02T00:38:17.579Z,8.8
2023-01-02T00:40:19.586Z,8.8
2023-01-02T00:45:26.115Z,7.8
2023-01-02T00:47:28.137Z,8.5
2023-01-02T00:49:33.191Z,6.7
2023-01-02T00:53:37.187Z,9.9
2023-01-02T00:55:39.194Z,8.3
2023-01-02T01:03:50.264Z,7.4
2023-01-02T01:05:52.266Z,7.3
2023-01-02T01:07:54.267Z,6.2
2023-01-02T01:09:56.269Z,7.3
2023-01-02T01:12:01.062Z,8.7
2023-01-02T01:18:07.330Z,6
2023-01-02T01:20:09.316Z,7.3
2023-01-02T01:22:11.304Z,6.9
2023-01-02T01:24:13.324Z,7.2
2023-01-02T01:26:15.330Z,5.9
2023-01-02T01:28:17.305Z,6.6
2023-01-02T01:30:19.318Z,7.1
2023-01-02T01:32:24.363Z,7.1
2023-01-02T01:34:26.373Z,6.1
2023-01-02T01:36:28.355Z,6.9
2023-01-02T01:37:30.891Z,7.6
2023-01-02T01:39:32.868Z,7.9
2023-01-02T01:41:34.882Z,7.2
2023-01-02T01:43:36.965Z,6.3
2023-01-02T01:45:42.025Z,7.5
2023-01-02T01:51:47.961Z,6.5
2023-01-02T01:53:49.975Z,7.1
2023-01-02T01:55:51.961Z,5.9
2023-01-02T01:57:53.943Z,6.4
2023-01-02T01:59:59.023Z,5.1
2023-01-02T02:02:01.224Z,5.3
2023-01-02T02:04:03.013Z,7.5
2023-01-02T02:08:07.002Z,7
2023-01-02T02:10:09.014Z,6.8
2023-01-02T02:12:11.013Z,7.5
2023-01-02T02:14:16.075Z,7.2
2023-01-02T02:16:18.146Z,8
2023-01-02T02:18:20.060Z,6.2
2023-01-02T02:20:22.046Z,6.8
2023-01-02T02:26:28.066Z,6.2
2023-01-02T02:28:33.119Z,7.2
2023-01-02T02:30:35.137Z,5.7
2023-01-02T02:32:37.110Z,5.8
2023-01-02T02:33:39.652Z,4.8
2023-01-02T02:35:41.655Z,6.6
2023-01-02T02:37:43.626Z,8.2
2023-01-02T02:39:45.621Z,5.3
2023-01-02T02:45:54.745Z,5.1
2023-01-02T02:47:56.684Z,6
2023-01-02T02:56:07.740Z,5.9
2023-01-02T02:58:09.737Z,6.6
2023-01-02T03:06:17.731Z,5.5
2023-01-02T03:08:19.739Z,6.2
2023-01-02T03:10:24.787Z,5.5
2023-01-02T03:12:26.828Z,6.2
2023-01-02T03:14:28.785Z,7.1
2023-01-02T03:16:30.832Z,3.8
2023-01-02T03:18:32.780Z,5.5
2023-01-02T03:20:34.781Z,6.2
2023-01-02T03:22:36.789Z,5.8
2023-01-02T03:24:41.841Z,4.1
2023-01-02T03:26:43.848Z,5.8
2023-01-02T03:28:45.826Z,6
2023-01-02T03:35:06.527Z,5.5
2023-01-02T03:37:11.592Z,5.7
2023-01-02T03:41:15.602Z,4.8
2023-01-02T03:43:17.618Z,5.8
2023-01-02T03:45:19.593Z,5.5
2023-01-02T03:47:21.620Z,5.1
2023-01-02T03:49:23.604Z,5.5
2023-01-02T03:51:28.675Z,6.5
2023-01-02T03:53:30.671Z,5.8
2023-01-02T03:55:32.684Z,5.1
2023-01-02T03:57:34.683Z,5
2023-01-02T03:59:36.684Z,5.5
2023-01-02T04:01:38.787Z,5.6
2023-01-02T04:03:40.677Z,4.7
2023-01-02T04:05:45.729Z,5
2023-01-02T04:07:47.737Z,5.7
2023-01-02T04:09:49.742Z,4.7
2023-01-02T04:11:51.751Z,5.2
2023-01-02T04:13:53.757Z,5.1
2023-01-02T04:15:57.292Z,6.5
2023-01-02T04:17:59.218Z,5.2
2023-01-02T04:20:04.292Z,5.1
2023-01-02T04:22:06.279Z,4.4
2023-01-02T04:24:08.280Z,5.3
2023-01-02T04:25:10.800Z,4.9
2023-01-02T04:29:14.810Z,3.2
2023-01-02T04:31:16.843Z,2.8
2023-01-02T04:33:21.884Z,5.4
2023-01-02T04:39:27.887Z,5.2
2023-01-02T04:41:29.855Z,6
2023-01-02T04:43:31.881Z,4.6
2023-01-02T04:45:33.886Z,5
2023-01-02T04:51:42.933Z,4.6
2023-01-02T04:53:44.950Z,4.6
2023-01-02T04:55:46.954Z,5.7
2023-01-02T04:57:48.967Z,5
2023-01-02T04:59:50.968Z,4.1
2023-01-02T05:01:56.193Z,5.9
2023-01-02T05:03:58.064Z,5.7
2023-01-02T05:06:00.013Z,4.8
2023-01-02T05:08:02.036Z,5.7
2023-01-02T05:10:04.026Z,5
2023-01-02T05:12:06.017Z,4.4
2023-01-02T05:14:08.156Z,4.8
2023-01-02T05:20:17.081Z,4.9
2023-01-02T05:35:36.679Z,5.2
2023-01-02T05:39:40.671Z,5
2023-01-02T05:41:42.666Z,5.5
2023-01-02T05:43:47.732Z,3.8
2023-01-02T05:45:49.725Z,4.8
2023-01-02T05:47:51.727Z,4.1
2023-01-02T05:49:53.711Z,4.8
2023-01-02T05:51:55.697Z,5.5
2023-01-02T05:53:57.728Z,6.3
2023-01-02T05:55:59.731Z,4.5
2023-01-02T05:58:04.794Z,5
2023-01-02T06:00:06.767Z,4.7
2023-01-02T06:02:08.906Z,4.2
2023-01-02T06:04:14.691Z,6.3
2023-01-02T06:06:12.779Z,5.5
2023-01-02T06:08:14.776Z,4.5
2023-01-02T06:10:16.759Z,3.2
2023-01-02T06:12:21.829Z,5.9
2023-01-02T06:14:23.840Z,3.5
2023-01-02T06:16:25.901Z,5.8
2023-01-02T06:17:28.363Z,4.7
2023-01-02T06:25:39.422Z,4.7
2023-01-02T06:27:41.385Z,5.5
2023-01-02T06:33:47.409Z,5.2
2023-01-02T06:35:49.401Z,6.6
2023-01-02T06:37:51.448Z,4.9
2023-01-02T06:39:56.448Z,4.5
2023-01-02T06:41:58.456Z,4.3
2023-01-02T06:44:00.459Z,3.8
2023-01-02T06:46:02.533Z,3.1
2023-01-02T06:50:06.485Z,1.6
2023-01-02T06:54:13.512Z,1.4
2023-01-02T06:56:15.488Z,1.2
2023-01-02T07:04:23.515Z,1.1
2023-01-02T07:06:25.497Z,1.2
2023-01-02T07:10:32.560Z,1.1
2023-01-02T07:12:35.273Z,1.2
2023-01-02T07:19:02.125Z,1.8
2023-01-02T07:23:09.162Z,2.3
2023-01-02T07:27:13.157Z,2.1
2023-01-02T07:29:15.190Z,2.4
2023-01-02T07:31:17.475Z,2.3
2023-01-02T07:35:24.224Z,2.1
2023-01-02T07:37:26.228Z,2.6
2023-01-02T07:43:32.241Z,2.7
2023-01-02T07:45:34.296Z,2.8
2023-01-02T07:47:36.237Z,3.1
2023-01-02T07:49:41.288Z,3.2
2023-01-02T07:51:43.288Z,3
2023-01-02T07:53:45.281Z,2.9
2023-01-02T07:55:47.274Z,4
2023-01-02T07:57:49.259Z,3.3
2023-01-02T07:59:51.261Z,2.9
2023-01-02T08:01:53.382Z,2.5
2023-01-02T08:03:58.330Z,3.6
2023-01-02T08:06:00.280Z,3
2023-01-02T08:08:02.311Z,3.8
2023-01-02T08:09:04.805Z,3.1
2023-01-02T08:11:06.822Z,4
2023-01-02T08:13:08.782Z,4.6
2023-01-02T08:15:10.749Z,3.7
2023-01-02T08:17:15.833Z,4.2
2023-01-02T08:19:17.838Z,3.3
2023-01-02T08:21:19.817Z,5.5
2023-01-02T08:23:21.809Z,4.7
2023-01-02T08:25:23.791Z,4.7
2023-01-02T08:33:34.803Z,3.9
2023-01-02T08:35:38.973Z,3.5
2023-01-02T08:39:40.816Z,2.9
2023-01-02T08:41:42.808Z,2.9
2023-01-02T08:43:44.801Z,3.3
2023-01-02T08:45:49.864Z,3.4
2023-01-02T08:47:51.865Z,2.4
2023-01-02T08:49:53.840Z,2.7
2023-01-02T08:51:55.828Z,2.3
2023-01-02T08:53:57.813Z,2.6
2023-01-02T08:55:59.803Z,1.8
2023-01-02T08:58:01.811Z,2
2023-01-02T09:00:06.858Z,2.9
2023-01-02T09:02:08.983Z,2.7
2023-01-02T09:05:13.374Z,2.7
2023-01-02T09:11:19.329Z,3.2
2023-01-02T09:13:24.392Z,4.3
2023-01-02T09:15:26.410Z,2.1
2023-01-02T09:17:28.386Z,2.8
2023-01-02T09:19:30.365Z,3.3
2023-01-02T09:21:32.381Z,3.5
2023-01-02T09:23:34.357Z,3
2023-01-02T09:25:36.355Z,3.4
2023-01-02T09:27:41.419Z,2.6
2023-01-02T09:29:43.385Z,3.1
2023-01-02T09:31:45.456Z,3.1
2023-01-02T09:35:49.405Z,2.9
2023-01-02T09:37:51.377Z,3.6
2023-01-02T09:39:53.392Z,3.9
2023-01-02T09:41:58.399Z,3.8
2023-01-02T09:44:00.428Z,3.1
2023-01-02T09:46:02.459Z,2.4
2023-01-02T09:48:04.383Z,2.7
2023-01-02T09:50:06.381Z,1.9
2023-01-02T09:52:08.389Z,2.1
2023-01-02T09:54:10.380Z,2.4
2023-01-02T09:56:22.283Z,2.3
2023-01-02T09:58:17.461Z,2.7
2023-01-02T10:01:22.051Z,4.1
2023-01-02T10:03:24.121Z,2.8
2023-01-02T10:05:25.959Z,2.6
2023-01-02T10:07:29.493Z,3.3
2023-01-02T10:09:34.482Z,3.4
2023-01-02T10:11:36.493Z,2.6
2023-01-02T10:14:16.719Z,2.8
2023-01-02T10:15:40.592Z,3
2023-01-02T10:17:42.485Z,3.5
2023-01-02T10:19:44.459Z,2.9
2023-01-02T10:21:46.463Z,2.5
2023-01-02T10:23:51.514Z,3.2
2023-01-02T10:25:53.479Z,3.3
2023-01-02T10:27:55.475Z,3.3
2023-01-02T10:29:57.463Z,2.1
2023-01-02T10:31:59.480Z,2.6
2023-01-02T10:34:01.479Z,3.7
2023-01-02T10:36:03.417Z,3.2
2023-01-02T10:38:08.473Z,2.9
2023-01-02T10:40:10.446Z,4.5
2023-01-02T10:42:12.465Z,2.7
2023-01-02T10:44:14.437Z,5.1
2023-01-02T10:46:16.787Z,3.7
2023-01-02T10:48:18.692Z,3.5
2023-01-02T10:50:20.724Z,5.1
2023-01-02T10:52:25.757Z,6.3
2023-01-02T10:54:27.760Z,6.2
2023-01-02T10:56:29.707Z,5.1
2023-01-02T11:00:54.665Z,6.9
2023-01-02T11:05:01.643Z,7.7
2023-01-02T11:07:03.682Z,7.8
2023-01-02T11:15:11.599Z,8
2023-01-02T11:21:21.385Z,10.5
2023-01-02T11:23:23.389Z,7.9
2023-01-02T11:25:25.386Z,7.1
2023-01-02T11:27:27.346Z,6.1
2023-01-02T11:29:29.330Z,6.9
2023-01-02T11:31:31.279Z,7.4
2023-01-02T11:33:36.308Z,6.3
2023-01-02T11:35:38.256Z,5.3
2023-01-02T11:37:40.285Z,6.5
2023-01-02T11:39:42.265Z,5.5
2023-01-02T11:41:44.286Z,5.9
2023-01-02T11:43:46.267Z,6.7
2023-01-02T11:45:48.308Z,5.2
2023-01-02T11:47:53.286Z,5.5
2023-01-02T11:49:55.274Z,5.5
2023-01-02T11:51:57.271Z,6.3
2023-01-02T11:52:59.787Z,5.4
2023-01-02T11:55:01.804Z,6
2023-01-02T11:57:03.764Z,6.3
2023-01-02T12:01:10.804Z,5.4
2023-01-02T12:03:18.130Z,5.6
2023-01-02T12:05:14.775Z,4.7
2023-01-02T12:07:16.777Z,5.3
2023-01-02T12:09:18.777Z,5.1
2023-01-02T12:11:20.778Z,5
2023-01-02T12:13:22.744Z,5
2023-01-02T12:15:27.789Z,5.5
2023-01-02T12:17:29.788Z,5
2023-01-02T12:19:31.802Z,5
2023-01-02T12:21:33.751Z,6.7
2023-01-02T12:23:35.740Z,4.1
2023-01-02T12:25:37.743Z,4.6
2023-01-02T12:27:39.718Z,5.6
2023-01-02T12:29:46.343Z,5.1
2023-01-02T12:33:48.748Z,5.3
2023-01-02T12:35:50.735Z,3.9
2023-01-02T12:37:52.750Z,3.8
2023-01-02T12:42:01.978Z,3.7
2023-01-02T12:44:01.798Z,4.8
2023-01-02T12:46:03.845Z,4.4
2023-01-02T12:48:05.769Z,4.7
2023-01-02T12:51:10.301Z,4.7
2023-01-02T12:53:12.266Z,4.4
2023-01-02T12:55:14.259Z,4
2023-01-02T12:57:22.327Z,4.1
2023-01-02T12:59:21.311Z,3.9
2023-01-02T13:01:23.398Z,3.8
2023-01-02T13:03:25.317Z,3.7
2023-01-02T13:05:27.264Z,4.2
2023-01-02T13:07:29.274Z,3.3
2023-01-02T13:09:31.299Z,3.6
2023-01-02T13:11:36.313Z,4.8
2023-01-02T13:13:38.337Z,4.8
2023-01-02T13:15:40.319Z,3.8
2023-01-02T13:17:42.326Z,3.5
2023-01-02T13:19:44.315Z,4.5
2023-01-02T13:21:46.289Z,3.4
2023-01-02T13:23:48.376Z,3.5
2023-01-02T13:25:53.332Z,3.2
2023-01-02T13:27:55.357Z,3.2
2023-01-02T13:29:57.315Z,3.3
2023-01-02T13:31:59.392Z,3.3
2023-01-02T13:34:01.306Z,3.6
2023-01-02T13:36:03.328Z,3.5
2023-01-02T13:38:05.283Z,2.9
2023-01-02T13:40:10.349Z,3.1
2023-01-02T13:42:12.345Z,3.8
2023-01-02T13:44:14.335Z,4
2023-01-02T13:45:16.852Z,4.7
2023-01-02T13:49:20.870Z,3.5
2023-01-02T13:51:22.810Z,4.5
2023-01-02T13:57:31.862Z,5.1
2023-01-02T13:59:41.791Z,4.3
2023-01-02T14:03:37.864Z,7
2023-01-02T14:07:44.846Z,6.6
2023-01-02T14:09:46.862Z,6.9
2023-01-02T14:11:56.070Z,7.4
2023-01-02T14:13:50.869Z,7.8
2023-01-02T14:15:52.908Z,9.1
2023-01-02T14:17:54.829Z,8.4
2023-01-02T14:19:56.819Z,7.8
2023-01-02T14:22:01.883Z,9.9
2023-01-02T14:24:18.563Z,10.5
2023-01-02T14:26:05.846Z,10.5
2023-01-02T14:28:07.808Z,9.7
2023-01-02T14:30:09.804Z,11.3
2023-01-02T14:32:11.790Z,11.9
2023-01-02T14:34:13.808Z,12.1
2023-01-02T14:36:24.503Z,11.5
2023-01-02T14:38:20.826Z,12.7
2023-01-02T14:40:22.849Z,10.8
2023-01-02T14:42:45.646Z,12.9
2023-01-02T14:44:47.629Z,12.1
2023-01-02T14:46:49.565Z,12.3
2023-01-02T14:48:54.544Z,13.8
2023-01-02T14:50:56.508Z,12.9
2023-01-02T14:52:58.524Z,14.5
2023-01-02T14:55:00.508Z,13.6
2023-01-02T14:57:02.509Z,13
2023-01-02T14:59:04.479Z,13.9
2023-01-02T15:01:06.475Z,14.5
2023-01-02T15:03:11.641Z,15.3
2023-01-02T15:05:13.556Z,17.9
2023-01-02T15:07:15.527Z,17.5
2023-01-02T15:09:17.513Z,15.3
2023-01-02T15:11:19.507Z,15.8
2023-01-02T15:13:21.519Z,15.8
2023-01-02T15:15:23.523Z,16.9
2023-01-02T15:17:28.536Z,16.6
2023-01-02T15:19:30.533Z,19.6
2023-01-02T15:21:32.515Z,21.6
2023-01-02T15:23:34.504Z,20.2
2023-01-02T15:25:36.501Z,18.7
2023-01-02T15:27:38.487Z,18.2
2023-01-02T15:29:45.438Z,19.4
2023-01-02T15:31:45.511Z,20.9
2023-01-02T15:33:47.499Z,17.3
2023-01-02T15:35:49.476Z,18.8
2023-01-02T15:36:52.001Z,19.8
2023-01-02T15:47:05.020Z,20
2023-01-02T15:49:07.171Z,19.9
2023-01-02T15:51:09.017Z,19.2
2023-01-02T15:53:10.970Z,19.9
2023-01-02T15:55:12.955Z,16.3
2023-01-02T15:57:14.955Z,17.2
2023-01-02T16:01:23.688Z,15
2023-01-02T16:03:25.507Z,16.9
2023-01-02T16:05:27.455Z,14.3
2023-01-02T16:09:31.574Z,11.8
2023-01-02T16:13:38.479Z,12.7
2023-01-02T16:17:42.487Z,14.3
2023-01-02T16:19:44.499Z,13.6
2023-01-02T16:21:46.478Z,13.7
2023-01-02T16:23:48.466Z,13.4
2023-01-02T16:25:50.445Z,12.3
2023-01-02T16:27:55.514Z,14.6
2023-01-02T16:29:57.493Z,12.5
2023-01-02T16:31:59.475Z,13.2
2023-01-02T16:33:02.006Z,14.1
2023-01-02T16:35:03.991Z,12.7
2023-01-02T16:37:05.964Z,12
2023-01-02T16:39:07.969Z,13.2
2023-01-02T16:41:13.004Z,14
2023-01-02T16:43:14.993Z,12.7
2023-01-02T16:45:16.962Z,13.5
2023-01-02T16:47:18.971Z,13.6
2023-01-02T16:49:20.946Z,13.7
2023-01-02T16:51:22.938Z,12.2
2023-01-02T16:53:24.917Z,13.8
2023-01-02T16:55:29.969Z,14.2
2023-01-02T16:57:31.931Z,13.9
2023-01-02T16:59:33.935Z,14.8
2023-01-02T17:01:36.029Z,12.7
2023-01-02T17:03:37.977Z,15
2023-01-02T17:05:39.968Z,12.5
2023-01-02T17:07:41.934Z,13.1
2023-01-02T17:09:46.967Z,12.2
2023-01-02T17:11:48.959Z,10.5
2023-01-02T17:13:50.950Z,11.7
2023-01-02T17:15:53.016Z,7.3
2023-01-02T17:17:54.904Z,10
2023-01-02T17:19:56.954Z,9.3
2023-01-02T17:21:58.873Z,10.1
2023-01-02T17:24:03.907Z,9.3
2023-01-02T17:26:05.919Z,9.4
2023-01-02T17:28:07.884Z,8.8
2023-01-02T17:29:10.398Z,9.4
2023-01-02T17:33:14.355Z,7.9
2023-01-02T17:35:16.363Z,7.4
2023-01-02T17:37:21.383Z,8.1
2023-01-02T17:41:25.361Z,7.1
2023-01-02T17:45:29.341Z,9.7
2023-01-02T17:47:59.519Z,9.5
2023-01-02T17:49:33.254Z,9.5
2023-01-02T17:51:38.255Z,9.6
2023-01-02T17:53:40.243Z,8.8
2023-01-02T17:59:46.186Z,7.5
2023-01-02T18:03:50.101Z,9.5
2023-01-02T18:05:55.126Z,8.8
2023-01-02T18:07:57.094Z,9.5
2023-01-02T18:10:08.659Z,7.4
2023-01-02T18:12:01.034Z,8.5
2023-01-02T18:14:03.010Z,8.8
2023-01-02T18:20:11.952Z,7.5
2023-01-02T18:22:13.914Z,7.5
2023-01-02T18:26:32.638Z,9.1
2023-01-02T18:28:34.627Z,9.4
2023-01-02T18:32:41.612Z,7.4
2023-01-02T18:34:48.241Z,8.6
2023-01-02T18:36:45.507Z,8.2
2023-01-02T18:38:47.490Z,7.1
2023-01-02T18:40:49.439Z,7.5
2023-01-02T18:42:51.386Z,8.8
2023-01-02T18:47:04.334Z,9.6
2023-01-02T18:49:00.325Z,8.3
2023-01-02T18:51:02.290Z,8.3
2023-01-02T18:53:04.273Z,8.2
2023-01-02T18:55:06.222Z,8.4
2023-01-02T18:57:08.191Z,8.1
2023-01-02T19:05:19.061Z,9.8
2023-01-02T19:07:21.051Z,10.6
2023-01-02T19:09:22.985Z,10.3
2023-01-02T19:11:25.049Z,11.2
2023-01-02T19:13:27.039Z,11.9
2023-01-02T19:17:34.297Z,11.4
2023-01-02T19:19:40.600Z,11.1
2023-01-02T19:20:38.785Z,13.2
2023-01-02T19:22:40.955Z,14.6
2023-01-02T19:24:42.926Z,14.1
2023-01-02T19:26:44.890Z,13.4
2023-01-02T19:28:49.889Z,15
2023-01-02T19:30:51.930Z,14.8
2023-01-02T19:32:53.930Z,13.2
2023-01-02T19:34:55.895Z,14.4
2023-01-02T19:36:57.957Z,23.4
2023-01-02T19:41:01.879Z,13.6
2023-01-02T19:43:06.995Z,15.2
2023-01-02T19:45:09.382Z,12.8
2023-01-02T19:47:11.038Z,14
2023-01-02T19:49:13.070Z,15.6
2023-01-02T19:51:15.041Z,15.2
2023-01-02T19:53:17.017Z,15.3
2023-01-02T19:55:19.216Z,16.7
2023-01-02T19:57:24.191Z,15.4
2023-01-02T19:59:26.107Z,16.1
2023-01-02T20:01:28.317Z,17.1
2023-01-02T20:03:30.175Z,19.5
2023-01-02T20:11:41.442Z,29.1
2023-01-02T20:16:48.171Z,23.5
2023-01-02T20:18:50.210Z,25.2
2023-01-02T20:20:52.248Z,26.6
2023-01-02T20:22:54.347Z,28.5
2023-01-02T20:24:59.540Z,28.5
2023-01-02T20:27:01.517Z,24.6
2023-01-02T20:29:03.440Z,25.7
2023-01-02T20:31:05.445Z,25.4
2023-01-02T20:33:07.442Z,24.1
2023-01-02T20:35:09.503Z,23.3
2023-01-02T20:37:11.522Z,21.6
2023-01-02T20:39:16.610Z,25.9
2023-01-02T20:41:18.804Z,25.6
2023-01-02T20:43:20.740Z,22.8
2023-01-02T20:45:22.781Z,24.3
2023-01-02T20:53:34.118Z,24.1
2023-01-02T20:55:36.205Z,24.5
2023-01-02T20:57:38.208Z,23.9
2023-01-02T20:59:40.303Z,24.6
2023-01-02T21:01:42.584Z,22.2
2023-01-02T21:03:44.431Z,20.9
2023-01-02T21:05:46.397Z,24
2023-01-02T21:07:51.763Z,23.9
2023-01-02T21:09:53.665Z,20.8
2023-01-02T21:11:55.857Z,23.1
2023-01-02T21:12:58.333Z,23.6
2023-01-02T21:21:09.685Z,22.3
2023-01-02T21:23:11.744Z,21.6
2023-01-02T21:25:13.659Z,21.6
2023-01-02T21:29:17.771Z,22.7
2023-01-02T21:31:19.863Z,21.4
2023-01-02T21:33:21.889Z,21.8
2023-01-02T21:35:27.062Z,23.3
2023-01-02T21:37:29.110Z,22.7
2023-01-02T21:39:31.236Z,22.1
2023-01-02T21:45:37.288Z,22.1
2023-01-02T21:49:46.061Z,24.1
2023-01-02T21:51:48.092Z,23.6
2023-01-02T21:53:50.095Z,24.9
2023-01-02T21:55:52.141Z,24.7
2023-01-02T21:58:13.724Z,26.2
2023-01-02T21:59:56.361Z,31.2
2023-01-02T22:01:58.458Z,28.8
2023-01-02T22:04:03.530Z,29.2
2023-01-02T22:06:05.542Z,26.7
2023-01-02T22:08:07.575Z,27.9
2023-01-02T22:10:30.414Z,28.3
2023-01-02T22:12:32.451Z,26.8
2023-01-02T22:14:34.485Z,26.5
2023-01-02T22:16:39.806Z,28.8
2023-01-02T22:18:41.758Z,25.7
2023-01-02T22:20:43.797Z,25.6
2023-01-02T22:22:45.837Z,25.6
2023-01-02T22:24:47.879Z,26.3
2023-01-02T22:26:49.915Z,26.4
2023-01-02T22:28:51.984Z,28.8
2023-01-02T22:30:57.179Z,29.3
2023-01-02T22:32:59.210Z,29.9
2023-01-02T22:35:01.242Z,27.6
2023-01-02T22:37:03.277Z,28.1
2023-01-02T22:39:28.008Z,27.8
2023-01-02T22:41:07.377Z,29.5
2023-01-02T22:43:09.422Z,33.1
2023-01-02T22:45:14.644Z,32.9
2023-01-02T22:47:16.828Z,30.8
2023-01-02T22:51:42.760Z,32.4
2023-01-02T22:53:22.756Z,32
2023-01-02T22:55:24.803Z,32.9
2023-01-02T22:57:26.859Z,34.6
2023-01-02T22:59:32.055Z,35.7
2023-01-02T23:01:34.169Z,36.5
2023-01-02T23:03:36.161Z,31.9
2023-01-02T23:04:38.903Z,35.3
2023-01-02T23:06:57.888Z,34.8
2023-01-02T23:08:42.851Z,36.4
2023-01-02T23:10:44.842Z,36.1
2023-01-02T23:12:50.099Z,41.5
2023-01-02T23:14:52.121Z,36.6
2023-01-02T23:16:54.243Z,37.8
2023-01-02T23:18:57.135Z,36.1
2023-01-02T23:20:58.233Z,36.1
2023-01-02T23:23:00.268Z,39.4
2023-01-02T23:25:02.341Z,36
2023-01-02T23:27:07.535Z,40.8
2023-01-02T23:29:09.558Z,37.1
2023-01-02T23:31:11.673Z,39
2023-01-02T23:33:13.614Z,37.2
2023-01-02T23:35:15.672Z,38.1
2023-01-02T23:37:17.734Z,41.1
2023-01-02T23:39:19.767Z,37.7
2023-01-02T23:41:24.960Z,41.8
2023-01-02T23:43:26.991Z,35.4
2023-01-02T23:45:29.073Z,38.7
2023-01-02T23:53:37.187Z,38.9
2023-01-02T23:55:42.436Z,40.4
2023-01-02T23:57:44.401Z,42
2023-01-02T23:59:46.448Z,39.4
